logo
Search for airport 
image banner adimage banner adimage banner ad
image banner ad

FANAMA - Namahadi

Located in , South Africa

ICAO - , IATA -

Data provided by Airmate  

General information

Coordinates: S27°17'15" E28°30'51"
Elevation is 5177 feet MSL.
 
View others Airports in Free State

Operational data

Special qualification required
Current time UTC:
Current local time:
Weather at : - ( 0 km )
METAR: KJHW 180742Z AUTO 27012KT 10SM SCT014 BKN055 OVC070 12/12 A2988 RMK AO2 RAB24E35 P0000
View NOTAMs / SUP AIP / TFR affecting this airport [VIEW]
Communications frequencies: [VIEW]

Runways:

RWY identifierQFULength (ft)Width (ft)SurfaceLDA (ft)
0120°377349SAND
19200°377349SAND
1194°311749SAND
29274°311749SAND

Airport contact information

Address: South Africa

Satellite view of FANAMA